Time;durP1;ratioP1;P1;durP2;ratioP2;P2;SDS_P1;SDS_P2;PMS_P1;PMS_P2;Temp;Humidity;BMP_temperature;BMP_pressure;BME280_temperature;BME280_humidity;BME280_pressure;Samples;Min_cycle;Max_cycle;Signal;HPM_P1;HPM_P2
2020/12/23 00:01:11;;;;;;;1999.90;999.90;;;9.50;99.90;;;;;;5115657;28;20078;-87
2020/12/23 00:03:38;;;;;;;1999.90;999.90;;;9.40;99.90;;;;;;5115340;28;20429;-87
2020/12/23 00:06:06;;;;;;;1999.90;999.90;;;9.40;99.90;;;;;;5115352;28;20221;-87
2020/12/23 00:08:34;;;;;;;1999.90;999.90;;;9.50;99.90;;;;;;5104445;28;20184;-88
2020/12/23 00:11:01;;;;;;;1999.90;999.90;;;9.50;99.90;;;;;;5112866;28;20059;-86
2020/12/23 00:13:28;;;;;;;1999.90;999.90;;;9.50;99.90;;;;;;5124824;27;20387;-88
2020/12/23 00:15:56;;;;;;;1999.90;999.90;;;9.50;99.90;;;;;;5114226;28;20120;-87
2020/12/23 00:18:23;;;;;;;1999.90;999.90;;;9.50;99.90;;;;;;5115459;27;20152;-87
2020/12/23 00:20:50;;;;;;;1999.90;999.90;;;9.50;99.90;;;;;;5117257;27;20067;-87
2020/12/23 00:23:17;;;;;;;1999.90;999.90;;;9.50;99.90;;;;;;5118945;27;20115;-88
2020/12/23 00:25:44;;;;;;;1999.90;999.90;;;9.50;99.90;;;;;;5117560;27;20044;-87
2020/12/23 00:28:12;;;;;;;1999.90;999.90;;;9.50;99.90;;;;;;5117016;27;20351;-87
2020/12/23 00:30:41;;;;;;;1999.90;999.90;;;9.50;99.90;;;;;;5115296;28;20059;-86
2020/12/23 00:33:25;;;;;;;1999.90;999.90;;;9.50;99.90;;;;;;5117114;27;20120;-88
2020/12/23 00:35:52;;;;;;;1999.90;999.90;;;9.50;99.90;;;;;;5117897;27;20135;-87
2020/12/23 00:38:19;;;;;;;1999.90;999.90;;;9.60;99.90;;;;;;5114935;28;20121;-87
2020/12/23 00:40:46;;;;;;;1999.90;999.90;;;9.50;99.90;;;;;;5114327;28;20121;-87
2020/12/23 00:43:13;;;;;;;1999.90;999.90;;;9.50;99.90;;;;;;5114568;28;20096;-87
2020/12/23 00:45:40;;;;;;;1999.90;999.90;;;9.50;99.90;;;;;;5114454;28;20047;-86
2020/12/23 00:48:07;;;;;;;1999.90;999.90;;;9.60;99.90;;;;;;5114575;28;20089;-87
2020/12/23 00:50:35;;;;;;;1999.90;999.90;;;9.60;99.90;;;;;;5114740;28;20086;-86
2020/12/23 00:53:03;;;;;;;1999.90;999.90;;;9.50;99.90;;;;;;5119655;27;20074;-87
2020/12/23 00:55:29;;;;;;;1999.90;999.90;;;9.50;99.90;;;;;;5111202;28;20097;-88
2020/12/23 00:57:56;;;;;;;1999.90;999.90;;;9.60;99.90;;;;;;5118917;27;20139;-87
2020/12/23 01:00:24;;;;;;;1999.90;999.90;;;9.60;99.90;;;;;;5107711;28;20134;-87
2020/12/23 01:02:51;;;;;;;1999.90;999.90;;;9.60;99.90;;;;;;5114337;28;20044;-87
2020/12/23 01:05:17;;;;;;;1999.90;999.90;;;9.60;99.90;;;;;;5114332;28;20143;-87
2020/12/23 01:07:45;;;;;;;1999.90;999.90;;;9.60;99.90;;;;;;5109456;28;20051;-87
2020/12/23 01:10:12;;;;;;;1999.90;999.90;;;9.60;99.90;;;;;;5113780;28;20048;-87
2020/12/23 01:12:39;;;;;;;1999.90;999.90;;;9.60;99.90;;;;;;5115276;27;20126;-88
2020/12/23 01:15:06;;;;;;;1999.90;999.90;;;9.60;99.90;;;;;;5114252;27;20052;-87
2020/12/23 01:17:33;;;;;;;1999.90;999.90;;;9.60;99.90;;;;;;5112340;28;20451;-87
2020/12/23 01:20:01;;;;;;;1999.90;999.90;;;9.60;99.90;;;;;;5108357;28;20067;-87
2020/12/23 01:22:28;;;;;;;1999.90;999.90;;;9.60;99.90;;;;;;5112755;28;20276;-87
2020/12/23 01:24:56;;;;;;;1999.90;999.90;;;9.60;99.90;;;;;;5114790;27;20051;-87
2020/12/23 01:27:23;;;;;;;1999.90;999.90;;;9.60;99.90;;;;;;5112767;27;20109;-87
2020/12/23 01:29:50;;;;;;;1999.90;999.90;;;9.60;99.90;;;;;;5118012;27;20500;-88
2020/12/23 01:32:18;;;;;;;1999.90;999.90;;;9.60;99.90;;;;;;5112160;28;20127;-87
2020/12/23 01:34:45;;;;;;;1999.90;999.90;;;9.60;99.90;;;;;;5123226;27;20051;-88
2020/12/23 01:37:12;;;;;;;1999.90;999.90;;;9.60;99.90;;;;;;5116154;27;20123;-87
2020/12/23 01:39:39;;;;;;;1999.90;999.90;;;9.60;99.90;;;;;;5120157;27;20089;-87
2020/12/23 01:42:07;;;;;;;1999.90;999.90;;;9.60;99.90;;;;;;5120863;27;20109;-87
2020/12/23 01:44:37;;;;;;;1999.90;999.90;;;9.60;99.90;;;;;;5113089;28;20108;-87
2020/12/23 01:47:07;;;;;;;1999.90;999.90;;;9.60;99.90;;;;;;5113211;27;20124;-87
2020/12/23 01:49:35;;;;;;;1999.90;999.90;;;9.70;99.90;;;;;;5113412;28;20378;-87
2020/12/23 01:52:02;;;;;;;1999.90;999.90;;;9.60;99.90;;;;;;5115975;27;20138;-87
2020/12/23 01:54:30;;;;;;;1999.90;999.90;;;9.60;99.90;;;;;;5113069;28;20083;-88
2020/12/23 01:56:58;;;;;;;1999.90;999.90;;;9.60;99.90;;;;;;5113412;28;20147;-87
2020/12/23 01:59:26;;;;;;;1999.90;999.90;;;9.60;99.90;;;;;;5112750;28;20134;-87
2020/12/23 02:02:08;;;;;;;1999.90;999.90;;;9.60;99.90;;;;;;5112483;28;20135;-87
2020/12/23 02:04:35;;;;;;;1999.90;999.90;;;9.60;99.90;;;;;;5113278;28;20395;-87
2020/12/23 02:07:03;;;;;;;1999.90;999.90;;;9.60;99.90;;;;;;5112736;28;20127;-87
2020/12/23 02:09:33;;;;;;;1999.90;999.90;;;9.70;99.90;;;;;;5113419;28;20047;-87
2020/12/23 02:12:01;;;;;;;1999.90;999.90;;;9.70;99.90;;;;;;5118196;28;20042;-87
2020/12/23 02:14:29;;;;;;;1999.90;999.90;;;9.60;99.90;;;;;;5113873;27;20142;-87
2020/12/23 02:16:57;;;;;;;1999.90;999.90;;;9.70;99.90;;;;;;5112903;28;20054;-87
2020/12/23 02:19:23;;;;;;;1999.90;999.90;;;9.70;99.90;;;;;;5108589;28;20101;-87
2020/12/23 02:21:51;;;;;;;1999.90;999.90;;;9.70;99.90;;;;;;5112882;28;20063;-87
2020/12/23 02:24:19;;;;;;;1999.90;999.90;;;9.70;99.90;;;;;;5113122;28;20075;-88
2020/12/23 02:26:46;;;;;;;1999.90;999.90;;;9.70;99.90;;;;;;5107420;28;20047;-87
2020/12/23 02:29:13;;;;;;;1999.90;999.90;;;9.70;99.90;;;;;;5112400;28;20055;-87
2020/12/23 02:31:40;;;;;;;1999.90;999.90;;;9.70;99.90;;;;;;5111446;28;20047;-87
2020/12/23 02:34:07;;;;;;;1999.90;999.90;;;9.70;99.90;;;;;;5112649;28;20155;-87
2020/12/23 02:36:35;;;;;;;1999.90;999.90;;;9.70;99.90;;;;;;5112783;28;20134;-87
2020/12/23 02:39:02;;;;;;;1999.90;999.90;;;9.70;99.90;;;;;;5112821;28;20075;-87
2020/12/23 02:41:30;;;;;;;1999.90;999.90;;;9.70;99.90;;;;;;5113409;28;20059;-87
2020/12/23 02:43:57;;;;;;;1999.90;999.90;;;9.70;99.90;;;;;;5110465;28;20130;-87
2020/12/23 02:46:24;;;;;;;1999.90;999.90;;;9.70;99.90;;;;;;5112373;28;20134;-86
2020/12/23 02:48:51;;;;;;;1999.90;999.90;;;9.70;99.90;;;;;;5112421;28;20059;-87
2020/12/23 02:51:18;;;;;;;1999.90;999.90;;;9.70;99.90;;;;;;5112953;28;20120;-88
2020/12/23 02:53:45;;;;;;;1999.90;999.90;;;9.70;99.90;;;;;;5112836;28;20047;-88
2020/12/23 02:56:12;;;;;;;1999.90;999.90;;;9.70;99.90;;;;;;5112811;28;20105;-87
2020/12/23 02:58:40;;;;;;;1999.90;999.90;;;9.70;99.90;;;;;;5112858;28;20529;-86
2020/12/23 03:01:08;;;;;;;1999.90;999.90;;;9.70;99.90;;;;;;5109092;28;20056;-85
2020/12/23 03:03:35;;;;;;;1999.90;999.90;;;9.70;99.90;;;;;;5112853;28;20086;-86
2020/12/23 03:06:01;;;;;;;1999.90;999.90;;;9.70;99.90;;;;;;5112236;28;20044;-85
2020/12/23 03:08:29;;;;;;;1999.90;999.90;;;9.80;99.90;;;;;;5112847;28;20073;-88
2020/12/23 03:10:56;;;;;;;1999.90;999.90;;;9.70;99.90;;;;;;5112462;28;20101;-88
2020/12/23 03:13:23;;;;;;;1999.90;999.90;;;9.70;99.90;;;;;;5112190;28;20047;-88
2020/12/23 03:15:50;;;;;;;1999.90;999.90;;;9.70;99.90;;;;;;5112843;28;20051;-88
2020/12/23 03:18:17;;;;;;;1999.90;999.90;;;9.70;99.90;;;;;;5114392;28;20075;-85
2020/12/23 03:20:44;;;;;;;1999.90;999.90;;;9.70;99.90;;;;;;5114778;28;20081;-86
2020/12/23 03:23:11;;;;;;;1999.90;999.90;;;9.70;99.90;;;;;;5115684;28;20039;-88
2020/12/23 03:25:39;;;;;;;1999.90;999.90;;;9.70;99.90;;;;;;5115971;28;20116;-88
2020/12/23 03:28:06;;;;;;;1999.90;999.90;;;9.70;99.90;;;;;;5115907;28;20162;-88
2020/12/23 03:30:33;;;;;;;1999.90;999.90;;;9.70;99.90;;;;;;5115565;28;20122;-87
2020/12/23 03:33:01;;;;;;;1999.90;999.90;;;9.80;99.90;;;;;;5113738;28;20078;-92
2020/12/23 03:35:29;;;;;;;1999.90;999.90;;;9.80;99.90;;;;;;5115879;28;20050;-92
2020/12/23 03:37:58;;;;;;;1999.90;999.90;;;9.80;99.90;;;;;;5114607;28;20180;-89
2020/12/23 03:40:25;;;;;;;1999.90;999.90;;;9.80;99.90;;;;;;5115487;28;20089;-89
2020/12/23 03:42:52;;;;;;;1999.90;999.90;;;9.80;99.90;;;;;;5115430;28;20044;-89
2020/12/23 03:45:19;;;;;;;1999.90;999.90;;;9.80;99.90;;;;;;5115125;28;20082;-89
2020/12/23 03:47:46;;;;;;;1999.90;999.90;;;9.80;99.90;;;;;;5110738;28;20096;-88
2020/12/23 03:50:14;;;;;;;1999.90;999.90;;;9.80;99.90;;;;;;5115913;28;20055;-89
2020/12/23 03:52:41;;;;;;;1999.90;999.90;;;9.80;99.90;;;;;;5115287;28;20070;-89
2020/12/23 03:55:09;;;;;;;1999.90;999.90;;;9.80;99.90;;;;;;5116328;28;20059;-88
2020/12/23 03:57:36;;;;;;;1999.90;999.90;;;9.80;99.90;;;;;;5115862;28;20132;-90
2020/12/23 04:00:05;;;;;;;1999.90;999.90;;;9.80;99.90;;;;;;5115579;28;20096;-89
2020/12/23 04:02:32;;;;;;;1999.90;999.90;;;9.80;99.90;;;;;;5115887;28;20094;-90
2020/12/23 04:04:59;;;;;;;1999.90;999.90;;;9.80;99.90;;;;;;5115412;28;20071;-88
2020/12/23 04:07:28;;;;;;;1999.90;999.90;;;9.80;99.90;;;;;;5114120;28;20469;-88
2020/12/23 04:09:55;;;;;;;1999.90;999.90;;;9.80;99.90;;;;;;5115587;28;20459;-90
2020/12/23 04:12:22;;;;;;;1999.90;999.90;;;9.80;99.90;;;;;;5115839;28;20048;-88
2020/12/23 04:14:49;;;;;;;1999.90;999.90;;;9.80;99.90;;;;;;5122241;27;20505;-88
2020/12/23 04:17:16;;;;;;;1999.90;999.90;;;9.80;99.90;;;;;;5120517;27;20101;-88
2020/12/23 04:19:43;;;;;;;1999.90;999.90;;;9.80;99.90;;;;;;5111934;28;20055;-88
2020/12/23 04:22:11;;;;;;;1999.90;999.90;;;9.80;99.90;;;;;;5114751;28;20071;-88
2020/12/23 04:24:39;;;;;;;1999.90;999.90;;;9.80;99.90;;;;;;5114936;28;20051;-88
2020/12/23 04:27:06;;;;;;;1999.90;999.90;;;9.80;99.90;;;;;;5115321;28;20084;-88
2020/12/23 04:29:37;;;;;;;1999.90;999.90;;;9.80;99.90;;;;;;5114524;28;20059;-88
2020/12/23 04:32:04;;;;;;;1999.90;999.90;;;9.80;99.90;;;;;;5115042;28;20043;-88
2020/12/23 04:34:31;;;;;;;1999.90;999.90;;;9.80;99.90;;;;;;5115432;28;20451;-88
2020/12/23 04:36:59;;;;;;;1999.90;999.90;;;9.80;99.90;;;;;;5111551;28;20134;-88
2020/12/23 04:39:26;;;;;;;1999.90;999.90;;;9.80;99.90;;;;;;5116105;27;20067;-89
2020/12/23 04:41:53;;;;;;;1999.90;999.90;;;9.80;99.90;;;;;;5115017;28;20108;-89
2020/12/23 04:44:21;;;;;;;1999.90;999.90;;;9.80;99.90;;;;;;5114844;28;20427;-89
2020/12/23 04:46:49;;;;;;;1999.90;999.90;;;9.80;99.90;;;;;;5116673;27;20051;-89
2020/12/23 04:49:19;;;;;;;1999.90;999.90;;;9.80;99.90;;;;;;5114803;28;20056;-89
2020/12/23 04:51:51;;;;;;;1999.90;999.90;;;9.80;99.90;;;;;;5116703;27;20051;-89
2020/12/23 04:54:19;;;;;;;1999.90;999.90;;;9.90;99.90;;;;;;5114380;28;20055;-88
2020/12/23 04:56:46;;;;;;;1999.90;999.90;;;9.90;99.90;;;;;;5114516;28;20146;-89
2020/12/23 04:59:15;;;;;;;1999.90;999.90;;;9.90;99.90;;;;;;5114881;28;20083;-88
2020/12/23 05:01:42;;;;;;;1999.90;999.90;;;9.90;99.90;;;;;;5115745;28;20545;-89
2020/12/23 05:04:09;;;;;;;1999.90;999.90;;;9.90;99.90;;;;;;5118611;28;20101;-89
2020/12/23 05:06:37;;;;;;;1999.90;999.90;;;9.90;99.90;;;;;;5117929;28;20048;-89
2020/12/23 05:09:05;;;;;;;1999.90;999.90;;;9.90;99.90;;;;;;5115149;28;20098;-90
2020/12/23 05:11:34;;;;;;;1999.90;999.90;;;9.90;99.90;;;;;;5114360;28;20489;-89
2020/12/23 05:14:05;;;;;;;1999.90;999.90;;;9.90;99.90;;;;;;5108141;27;20047;-88
2020/12/23 05:16:34;;;;;;;1999.90;999.90;;;9.90;99.90;;;;;;5112747;28;20146;-88
2020/12/23 05:19:02;;;;;;;1999.90;999.90;;;9.90;99.90;;;;;;5114920;28;20489;-89
2020/12/23 05:21:29;;;;;;;1999.90;999.90;;;9.90;99.90;;;;;;5114518;28;20470;-89
2020/12/23 05:23:58;;;;;;;1999.90;999.90;;;9.90;99.90;;;;;;5114481;28;20562;-89
2020/12/23 05:26:26;;;;;;;1999.90;999.90;;;9.90;99.90;;;;;;5114320;28;20101;-88
2020/12/23 05:28:53;;;;;;;1999.90;999.90;;;10.00;99.90;;;;;;5114577;28;20082;-88
2020/12/23 05:31:21;;;;;;;1999.90;999.90;;;10.00;99.90;;;;;;5114322;28;20100;-88
2020/12/23 05:33:50;;;;;;;1999.90;999.90;;;9.90;99.90;;;;;;5113864;28;20051;-89
2020/12/23 05:36:36;;;;;;;1999.90;999.90;;;10.00;99.90;;;;;;5114212;28;20096;-88
2020/12/23 05:39:05;;;;;;;1999.90;999.90;;;10.00;99.90;;;;;;5113522;28;20489;-87
2020/12/23 05:41:32;;;;;;;1999.90;999.90;;;10.00;99.90;;;;;;5103865;28;20056;-89
2020/12/23 05:44:00;;;;;;;1999.90;999.90;;;10.00;99.90;;;;;;5109272;28;20135;-88
2020/12/23 05:46:27;;;;;;;1999.90;999.90;;;10.00;99.90;;;;;;5117554;27;20146;-88
2020/12/23 05:48:55;;;;;;;1999.90;999.90;;;10.00;99.90;;;;;;5113912;28;20051;-88
2020/12/23 05:51:22;;;;;;;1999.90;999.90;;;10.00;99.90;;;;;;5113589;28;20126;-88
2020/12/23 05:53:50;;;;;;;1999.90;999.90;;;10.00;99.90;;;;;;5121580;27;20050;-88
2020/12/23 05:56:17;;;;;;;1999.90;999.90;;;10.10;99.90;;;;;;5113984;28;20060;-88
2020/12/23 05:58:44;;;;;;;1999.90;999.90;;;10.00;99.90;;;;;;5117290;27;20092;-88
2020/12/23 06:01:12;;;;;;;1999.90;999.90;;;10.00;99.90;;;;;;5113374;28;20082;-88
2020/12/23 06:03:51;;;;;;;1999.90;999.90;;;10.10;99.90;;;;;;5113908;28;20078;-88
2020/12/23 06:06:23;;;;;;;1999.90;999.90;;;10.10;99.90;;;;;;5113767;28;20149;-88
2020/12/23 06:08:53;;;;;;;1999.90;999.90;;;10.10;99.90;;;;;;5113515;28;20044;-88
2020/12/23 06:11:30;;;;;;;1999.90;999.90;;;10.10;99.90;;;;;;5113518;28;20075;-88
2020/12/23 06:14:24;;;;;;;1999.90;999.90;;;10.10;99.90;;;;;;5112709;28;20055;-88
2020/12/23 06:17:02;;;;;;;1999.90;999.90;;;10.10;99.90;;;;;;5068518;28;20123;-88
2020/12/23 06:19:30;;;;;;;1999.90;999.90;;;10.10;99.90;;;;;;5113115;28;20467;-88
2020/12/23 06:21:59;;;;;;;1999.90;999.90;;;10.10;99.90;;;;;;5102424;28;20054;-88
2020/12/23 06:24:26;;;;;;;1999.90;999.90;;;10.10;99.90;;;;;;5098206;28;20058;-88
2020/12/23 06:26:55;;;;;;;1999.90;999.90;;;10.10;99.90;;;;;;5117706;28;20051;-88
2020/12/23 06:29:24;;;;;;;1999.90;999.90;;;10.20;99.90;;;;;;5109065;28;20452;-88
2020/12/23 06:31:54;;;;;;;1999.90;999.90;;;10.10;99.90;;;;;;5105609;28;20394;-89
2020/12/23 06:34:23;;;;;;;1999.90;999.90;;;10.20;99.90;;;;;;5106955;28;20090;-90
2020/12/23 06:36:52;;;;;;;1999.90;999.90;;;10.20;99.90;;;;;;5112676;28;20078;-89
2020/12/23 06:39:27;;;;;;;1999.90;999.90;;;10.20;99.90;;;;;;5107804;28;20058;-89
2020/12/23 06:42:16;;;;;;;1999.90;999.90;;;10.20;99.90;;;;;;5111046;28;20090;-89
2020/12/23 06:45:00;;;;;;;1999.90;999.90;;;10.20;99.90;;;;;;5113734;28;20196;-90
2020/12/23 06:47:29;;;;;;;1999.90;999.90;;;10.20;99.90;;;;;;5119746;28;20073;-89
2020/12/23 06:49:58;;;;;;;1999.90;999.90;;;10.20;99.90;;;;;;5113741;28;20059;-90
2020/12/23 06:52:40;;;;;;;1999.90;999.90;;;10.20;99.90;;;;;;5111945;28;20055;-90
2020/12/23 06:55:09;;;;;;;1999.90;999.90;;;10.20;99.90;;;;;;5117898;28;20047;-90
2020/12/23 06:57:58;;;;;;;1999.90;999.90;;;10.30;99.90;;;;;;5118095;28;20055;-90
2020/12/23 07:00:41;;;;;;;1999.90;999.90;;;10.30;99.90;;;;;;5117603;28;20162;-89
2020/12/23 07:03:10;;;;;;;1999.90;999.90;;;10.30;99.90;;;;;;5117714;28;20062;-90
2020/12/23 07:05:48;;;;;;;1999.90;999.90;;;10.30;99.90;;;;;;5117435;28;20422;-89
2020/12/23 07:08:17;;;;;;;1999.90;999.90;;;10.30;99.90;;;;;;5124725;27;20048;-89
2020/12/23 07:10:50;;;;;;;1999.90;999.90;;;10.30;99.90;;;;;;5117526;28;20451;-89
2020/12/23 07:13:19;;;;;;;;;;;10.30;99.90;;;;;;5123372;27;20076;-89
2020/12/23 07:15:55;;;;;;;1999.90;999.90;;;10.30;99.90;;;;;;5117162;28;19927;-88
2020/12/23 07:18:28;;;;;;;1999.90;999.90;;;10.40;99.90;;;;;;5117526;28;20440;-89
2020/12/23 07:21:03;;;;;;;1999.90;999.90;;;10.40;99.90;;;;;;5128283;27;20053;-89
2020/12/23 07:23:31;;;;;;;1999.90;999.90;;;10.40;99.90;;;;;;5103989;28;20126;-89
2020/12/23 07:26:03;;;;;;;1999.90;999.90;;;10.40;99.90;;;;;;5117322;28;20130;-89
2020/12/23 07:28:33;;;;;;;1999.90;999.90;;;10.40;99.90;;;;;;5116849;28;20056;-88
2020/12/23 07:31:01;;;;;;;1999.90;999.90;;;10.40;99.90;;;;;;5117888;28;20131;-89
2020/12/23 07:33:30;;;;;;;1999.90;999.90;;;10.40;99.90;;;;;;5117146;28;20078;-89
2020/12/23 07:35:59;;;;;;;1999.90;999.90;;;10.40;99.90;;;;;;5117406;28;20062;-88
2020/12/23 07:38:28;;;;;;;1999.90;999.90;;;10.50;99.90;;;;;;5117069;28;20100;-88
2020/12/23 07:40:55;;;;;;;1999.90;999.90;;;10.50;99.90;;;;;;5116377;28;20086;-89
2020/12/23 07:43:23;;;;;;;1999.90;999.90;;;10.40;99.90;;;;;;5116175;28;20079;-88
2020/12/23 07:45:51;;;;;;;1999.90;999.90;;;10.50;99.90;;;;;;5120666;27;20158;-89
2020/12/23 07:48:19;;;;;;;1999.90;999.90;;;10.50;99.90;;;;;;5116649;28;20402;-89
2020/12/23 07:50:48;;;;;;;1999.90;999.90;;;10.50;99.90;;;;;;5116518;28;20071;-89
2020/12/23 07:53:18;;;;;;;1999.90;999.90;;;10.60;99.90;;;;;;5116098;28;20066;-88
2020/12/23 07:55:46;;;;;;;1999.90;999.90;;;10.50;99.90;;;;;;5116070;28;20049;-88
2020/12/23 07:58:14;;;;;;;1999.90;999.90;;;10.50;99.90;;;;;;5113408;27;20795;-88
2020/12/23 08:00:44;;;;;;;1999.90;999.90;;;10.60;99.90;;;;;;5114012;28;20094;-88
2020/12/23 08:03:12;;;;;;;1999.90;999.90;;;10.60;99.90;;;;;;5115152;27;20115;-88
2020/12/23 08:05:40;;;;;;;1999.90;999.90;;;10.60;99.90;;;;;;5115908;27;20075;-88
2020/12/23 08:08:27;;;;;;;1999.90;999.90;;;10.60;99.90;;;;;;5111809;28;20122;-90
2020/12/23 08:10:54;;;;;;;1999.90;999.90;;;10.60;99.90;;;;;;5110566;28;20065;-90
2020/12/23 08:13:26;;;;;;;1999.90;999.90;;;10.70;99.90;;;;;;5113584;28;20056;-91
2020/12/23 08:16:04;;;;;;;1999.90;999.90;;;10.70;99.90;;;;;;5116904;27;20091;-90
2020/12/23 08:18:31;;;;;;;1999.90;999.90;;;10.60;99.90;;;;;;5118052;27;20158;-90
2020/12/23 08:21:06;;;;;;;1999.90;999.90;;;10.60;99.90;;;;;;5115844;27;20051;-91
2020/12/23 08:23:33;;;;;;;;;;;10.70;99.90;;;;;;5115257;28;20108;-90
2020/12/23 08:26:01;;;;;;;1999.90;999.90;;;10.70;99.90;;;;;;5119290;27;19958;-91
2020/12/23 08:28:29;;;;;;;1999.90;999.90;;;10.70;99.90;;;;;;5122230;27;20043;-91
2020/12/23 08:30:57;;;;;;;1999.90;999.90;;;10.70;99.90;;;;;;5108733;28;20055;-90
2020/12/23 08:33:27;;;;;;;1999.90;999.90;;;10.80;99.90;;;;;;5115063;27;20043;-90
2020/12/23 08:36:00;;;;;;;1999.90;999.90;;;10.80;99.90;;;;;;5114190;28;20575;-90
2020/12/23 08:38:38;;;;;;;1999.90;999.90;;;10.90;99.90;;;;;;5112056;28;20071;-90
2020/12/23 08:41:11;;;;;;;1999.90;999.90;;;10.80;99.90;;;;;;5113627;27;21555;-90
2020/12/23 08:43:44;;;;;;;1999.90;999.90;;;10.90;99.90;;;;;;5115139;28;20104;-90
2020/12/23 08:46:11;;;;;;;1999.90;999.90;;;10.90;99.90;;;;;;5106051;28;20075;-90
2020/12/23 08:48:47;;;;;;;1999.90;999.90;;;11.00;99.90;;;;;;5117727;27;20059;-90
2020/12/23 08:51:18;;;;;;;1999.90;999.90;;;10.90;99.90;;;;;;5116504;27;20039;-90
2020/12/23 08:53:45;;;;;;;1999.90;999.90;;;11.00;99.90;;;;;;5117848;27;20105;-90
2020/12/23 08:56:23;;;;;;;1999.90;999.90;;;11.00;99.90;;;;;;5114886;28;20153;-89
2020/12/23 08:58:52;;;;;;;1999.90;999.90;;;10.90;99.90;;;;;;5115091;27;20119;-88
2020/12/23 09:01:23;;;;;;;1999.90;999.90;;;10.90;99.90;;;;;;5111141;28;20062;-90
2020/12/23 09:04:03;;;;;;;1999.90;999.90;;;10.90;99.90;;;;;;5114472;27;20126;-90
2020/12/23 09:06:34;;;;;;;1999.90;999.90;;;11.00;99.90;;;;;;5112107;28;20075;-90
2020/12/23 09:09:13;;;;;;;1999.90;999.90;;;11.00;99.90;;;;;;5117884;27;20105;-90
2020/12/23 09:11:42;;;;;;;1999.90;999.90;;;11.00;99.90;;;;;;5114093;28;20123;-90
2020/12/23 09:14:17;;;;;;;1999.90;999.90;;;11.10;99.90;;;;;;5111094;27;20494;-90
2020/12/23 09:17:19;;;;;;;1999.90;999.90;;;11.10;99.90;;;;;;5118080;27;20127;-90
2020/12/23 09:19:53;;;;;;;1999.90;999.90;;;11.10;99.90;;;;;;5081080;28;20104;-90
2020/12/23 09:22:33;;;;;;;1999.90;999.90;;;11.20;99.90;;;;;;5114436;28;20063;-90
2020/12/23 09:25:16;;;;;;;1999.90;999.90;;;11.20;99.90;;;;;;5098693;27;20058;-91
2020/12/23 09:27:44;;;;;;;1999.90;999.90;;;11.20;99.90;;;;;;5115418;28;20095;-92
2020/12/23 09:30:12;;;;;;;1999.90;999.90;;;11.20;99.90;;;;;;5114390;28;20450;-91
2020/12/23 09:32:52;;;;;;;1999.90;999.90;;;11.20;99.90;;;;;;5114519;28;20051;-92
2020/12/23 09:35:23;;;;;;;1999.90;999.90;;;11.20;99.90;;;;;;5116108;28;20481;-91
2020/12/23 09:38:02;;;;;;;1999.90;999.90;;;11.30;99.90;;;;;;5115672;27;20130;-90
2020/12/23 09:40:32;;;;;;;1999.90;999.90;;;11.20;99.90;;;;;;5137148;27;20057;-91
2020/12/23 09:42:59;;;;;;;1999.90;999.90;;;11.20;99.90;;;;;;5117078;27;20051;-91
2020/12/23 09:45:26;;;;;;;1999.90;999.90;;;11.30;99.90;;;;;;5102075;28;20051;-91
2020/12/23 09:47:54;;;;;;;1999.90;999.90;;;11.20;99.90;;;;;;5114102;28;20051;-91
2020/12/23 09:50:24;;;;;;;1999.90;999.90;;;11.30;99.90;;;;;;5114152;28;20082;-91
2020/12/23 09:52:51;;;;;;;1999.90;999.90;;;11.30;99.90;;;;;;5113781;28;20070;-90
2020/12/23 09:55:19;;;;;;;1999.90;999.90;;;11.30;99.90;;;;;;5114312;28;20130;-90
2020/12/23 09:57:46;;;;;;;1999.90;999.90;;;11.30;99.90;;;;;;5113570;28;20078;-90
2020/12/23 10:00:13;;;;;;;1999.90;999.90;;;11.30;99.90;;;;;;5101290;28;20047;-90
2020/12/23 10:02:40;;;;;;;1999.90;999.90;;;11.30;99.90;;;;;;5114141;28;20058;-91
2020/12/23 10:05:07;;;;;;;1999.90;999.90;;;11.30;99.90;;;;;;5112721;28;20355;-91
2020/12/23 10:07:35;;;;;;;1999.90;999.90;;;11.30;99.90;;;;;;5113730;28;20051;-91
2020/12/23 10:10:03;;;;;;;1999.90;999.90;;;11.30;99.90;;;;;;5113637;28;20054;-91
2020/12/23 10:12:30;;;;;;;1999.90;999.90;;;11.30;99.90;;;;;;5113970;28;20592;-91
2020/12/23 10:14:57;;;;;;;1999.90;999.90;;;11.30;99.90;;;;;;5112792;28;20079;-91
2020/12/23 10:17:25;;;;;;;1999.90;999.90;;;11.30;99.90;;;;;;5110457;28;20506;-89
2020/12/23 10:19:52;;;;;;;1999.90;999.90;;;11.30;99.90;;;;;;5114182;28;20093;-91
2020/12/23 10:22:19;;;;;;;1999.90;999.90;;;11.30;99.90;;;;;;5113586;28;20044;-91
2020/12/23 10:24:47;;;;;;;1999.90;999.90;;;11.30;99.90;;;;;;5107834;28;20135;-91
2020/12/23 10:27:14;;;;;;;1999.90;999.90;;;11.30;99.90;;;;;;5115471;28;20090;-91
2020/12/23 10:29:41;;;;;;;1999.90;999.90;;;11.30;99.90;;;;;;5117952;28;20059;-91
2020/12/23 10:32:09;;;;;;;1999.90;999.90;;;11.30;99.90;;;;;;5114078;28;20058;-91
2020/12/23 10:34:46;;;;;;;1999.90;999.90;;;11.30;99.90;;;;;;5117667;28;20077;-89
2020/12/23 10:37:13;;;;;;;1999.90;999.90;;;11.30;99.90;;;;;;5118104;28;20047;-91
2020/12/23 10:39:58;;;;;;;1999.90;999.90;;;11.30;99.90;;;;;;5106256;28;20401;-91
2020/12/23 10:42:28;;;;;;;1999.90;999.90;;;11.30;99.90;;;;;;5117415;28;20051;-91
2020/12/23 10:44:57;;;;;;;1999.90;999.90;;;11.20;99.90;;;;;;5110603;28;20797;-91
2020/12/23 10:47:32;;;;;;;;;;;11.30;99.90;;;;;;5117641;28;20051;-91
2020/12/23 10:50:00;;;;;;;1999.90;999.90;;;11.30;99.90;;;;;;5117017;28;19920;-91
2020/12/23 10:52:34;;;;;;;1999.90;999.90;;;11.20;99.90;;;;;;5117859;28;20127;-91
2020/12/23 10:55:07;;;;;;;1999.90;999.90;;;11.30;99.90;;;;;;5115116;28;20068;-92
2020/12/23 10:57:47;;;;;;;1999.90;999.90;;;11.20;99.90;;;;;;5113946;28;20075;-90
2020/12/23 11:00:16;;;;;;;1999.90;999.90;;;11.20;99.90;;;;;;5118442;28;20414;-92
2020/12/23 11:02:45;;;;;;;1999.90;999.90;;;11.20;99.90;;;;;;5109831;28;20056;-93
2020/12/23 11:05:12;;;;;;;1999.90;999.90;;;11.20;99.90;;;;;;5114735;28;20070;-92
2020/12/23 11:07:47;;;;;;;1999.90;999.90;;;11.20;99.90;;;;;;5116196;27;20060;-92
2020/12/23 11:10:27;;;;;;;1999.90;999.90;;;11.20;99.90;;;;;;5116198;27;20047;-92
2020/12/23 11:12:54;;;;;;;1999.90;999.90;;;11.20;99.90;;;;;;5121318;27;20058;-92
2020/12/23 11:15:22;;;;;;;1999.90;999.90;;;11.20;99.90;;;;;;5118574;27;20482;-92
2020/12/23 11:17:50;;;;;;;1999.90;999.90;;;11.20;99.90;;;;;;5110051;28;20047;-93
2020/12/23 11:20:20;;;;;;;1999.90;999.90;;;11.30;99.90;;;;;;5117128;28;20082;-93
2020/12/23 11:22:48;;;;;;;1999.90;999.90;;;11.30;99.90;;;;;;5117015;28;20071;-93
2020/12/23 11:25:18;;;;;;;1999.90;999.90;;;11.30;99.90;;;;;;5130009;27;20108;-94
2020/12/23 11:27:50;;;;;;;1999.90;999.90;;;11.30;99.90;;;;;;5118962;27;20056;-94
2020/12/23 11:30:24;;;;;;;1999.90;999.90;;;11.30;99.90;;;;;;5114821;27;20051;-87
2020/12/23 11:33:16;;;;;;;1999.90;999.90;;;11.30;99.90;;;;;;5122293;27;20126;-94
2020/12/23 11:35:43;;;;;;;1999.90;999.90;;;11.30;99.90;;;;;;5118802;27;20047;-92
2020/12/23 11:38:10;;;;;;;1999.90;999.90;;;11.30;99.90;;;;;;5121580;27;20525;-94
2020/12/23 11:40:37;;;;;;;1999.90;999.90;;;11.30;99.90;;;;;;5112261;27;20075;-94
2020/12/23 11:43:06;;;;;;;1999.90;999.90;;;11.30;99.90;;;;;;5116428;28;20044;-94
2020/12/23 11:45:33;;;;;;;1999.90;999.90;;;11.30;99.90;;;;;;5119417;27;20057;-94
2020/12/23 11:48:03;;;;;;;1999.90;999.90;;;11.30;99.90;;;;;;5117100;27;20051;-93
2020/12/23 11:50:31;;;;;;;1999.90;999.90;;;11.40;99.90;;;;;;5113954;22;20044;-88
2020/12/23 11:52:59;;;;;;;1999.90;999.90;;;11.30;99.90;;;;;;5094856;28;20048;-87
2020/12/23 11:55:29;;;;;;;1999.90;999.90;;;11.30;99.90;;;;;;5089330;28;20054;-89
2020/12/23 11:57:56;;;;;;;1999.90;999.90;;;11.40;99.90;;;;;;5107465;28;20451;-89
2020/12/23 12:00:50;;;;;;;1999.90;999.90;;;11.40;99.90;;;;;;5092465;28;20063;-87
2020/12/23 12:03:27;;;;;;;1999.90;999.90;;;11.40;99.90;;;;;;5092924;28;20051;-87
2020/12/23 12:05:58;;;;;;;1999.90;999.90;;;11.40;99.90;;;;;;5098419;28;20043;-95
2020/12/23 12:08:25;;;;;;;1999.90;999.90;;;11.40;99.90;;;;;;5092360;28;20055;-88
2020/12/23 12:11:14;;;;;;;1999.90;999.90;;;11.40;99.90;;;;;;5093621;28;20491;-88
2020/12/23 12:13:41;;;;;;;1999.90;999.90;;;11.40;99.90;;;;;;5089707;28;20076;-88
2020/12/23 12:16:09;;;;;;;1999.90;999.90;;;11.40;99.90;;;;;;5090603;28;20052;-88